PWSweather.com
Personal Weather Stations
Station Observations
KNVELKO7
Elko, NV 89801

Elko, NV 89801

Lat: 40.963233, Lon: -115.592836

Elevation: 5230

Station Type: WS-2812

High Low Average
Temperature 63.0°F17.2°F 23.4°F-4.8°F 42.9°F6.1°F
Dew Point 40.9°F4.9°F 17.7°F-7.9°F 30.9°F-0.6°F
Winds 29.2 mph W47.0 mph W Calm Calm 7.3 mph 11.7 mph
Wind Gusts 33.1 mph53.3 mph 0.4 mph0.6 mph 10.0 mph16.1 mph
Humidity 85% 34% 66%
Pressure 30.15 in1021.00 in 29.98 in1015.20 in -
Precipitation 2.80 in71.10 in - -
Hour Temp Dew Point Humidity Winds Wind Gusts Pressure Precip Precip Rate Daily Precip Total
12:03 AM 29.9°F-1.2°C 21.6°F-5.8°C 71% 2.8 mph NNW4.5 kmh NNW 3.8 mph6.1 kmh 30.14 in1020.7 mb 0.00 in0.0 mm 0.00 in0.0 mm 0.00 in0.0 mm
12:08 AM 29.7°F-1.3°C 21.4°F-5.9°C 71% 0.9 mph NNW1.4 kmh NNW 3.4 mph5.5 kmh 30.14 in1020.7 mb 0.00 in0.0 mm 0.00 in0.0 mm 0.00 in0.0 mm
12:13 AM 29.3°F-1.5°C 21.1°F-6.1°C 71% 2.3 mph 3.7 kmh 3.4 mph5.5 kmh 30.15 in1021.0 mb 0.00 in0.0 mm 0.00 in0.0 mm 0.00 in0.0 mm
12:18 AM 29.3°F-1.5°C 20.8°F-6.2°C 70% 2.7 mph NNE4.3 kmh NNE 3.4 mph5.5 kmh 30.15 in1021.0 mb 0.00 in0.0 mm 0.00 in0.0 mm 0.00 in0.0 mm
12:23 AM 29.3°F-1.5°C 21.1°F-6.1°C 71% 1.5 mph NNE2.4 kmh NNE 3.1 mph5.0 kmh 30.15 in1021.0 mb 0.00 in0.0 mm 0.00 in0.0 mm 0.00 in0.0 mm
12:28 AM 29.2°F-1.6°C 21.0°F-6.1°C 71% 2.7 mph ENE4.3 kmh ENE 4.0 mph6.4 kmh 30.15 in1021.0 mb 0.00 in0.0 mm 0.00 in0.0 mm 0.00 in0.0 mm
12:33 AM 28.8°F-1.8°C 20.6°F-6.3°C 71% 4.0 mph N6.4 kmh N 4.5 mph7.2 kmh 30.15 in1021.0 mb 0.00 in0.0 mm 0.00 in0.0 mm 0.00 in0.0 mm
12:38 AM 27.9°F-2.3°C 19.7°F-6.8°C 71% 3.9 mph NNE6.3 kmh NNE 6.3 mph10.1 kmh 30.15 in1021.0 mb 0.00 in0.0 mm 0.00 in0.0 mm 0.00 in0.0 mm
12:43 AM 28.1°F-2.2°C 20.3°F-6.5°C 72% 3.2 mph 5.1 kmh 6.3 mph10.1 kmh 30.15 in1021.0 mb 0.00 in0.0 mm 0.00 in0.0 mm 0.00 in0.0 mm
12:48 AM 28.4°F-2.0°C 20.9°F-6.2°C 73% 2.5 mph 4.0 kmh 4.9 mph7.9 kmh 30.15 in1021.0 mb 0.00 in0.0 mm 0.00 in0.0 mm 0.00 in0.0 mm
12:53 AM 28.4°F-2.0°C 20.9°F-6.2°C 73% 3.2 mph 5.1 kmh 3.6 mph5.8 kmh 30.15 in1021.0 mb 0.00 in0.0 mm 0.00 in0.0 mm 0.00 in0.0 mm
12:58 AM 28.3°F-2.1°C 20.7°F-6.3°C 73% 4.3 mph 6.9 kmh 4.5 mph7.2 kmh 30.15 in1021.0 mb 0.00 in0.0 mm 0.00 in0.0 mm 0.00 in0.0 mm
01:03 AM 28.4°F-2.0°C 21.3°F-5.9°C 74% 4.6 mph NE7.4 kmh NE 4.7 mph7.6 kmh 30.15 in1021.0 mb 0.00 in0.0 mm 0.00 in0.0 mm 0.00 in0.0 mm
01:08 AM 28.8°F-1.8°C 21.9°F-5.6°C 75% 4.2 mph NE6.8 kmh NE 4.7 mph7.6 kmh 30.15 in1021.0 mb 0.00 in0.0 mm 0.00 in0.0 mm 0.00 in0.0 mm
01:13 AM 28.6°F-1.9°C 21.7°F-5.7°C 75% 4.0 mph NE6.4 kmh NE 4.7 mph7.6 kmh 30.15 in1021.0 mb 0.00 in0.0 mm 0.00 in0.0 mm 0.00 in0.0 mm
01:18 AM 28.4°F-2.0°C 21.8°F-5.7°C 76% 3.9 mph ENE6.3 kmh ENE 6.9 mph11.1 kmh 30.15 in1021.0 mb 0.00 in0.0 mm 0.00 in0.0 mm 0.00 in0.0 mm
01:23 AM 28.4°F-2.0°C 21.8°F-5.7°C 76% 2.9 mph N4.7 kmh N 6.9 mph11.1 kmh 30.15 in1021.0 mb 0.00 in0.0 mm 0.00 in0.0 mm 0.00 in0.0 mm
01:28 AM 28.1°F-2.2°C 21.2°F-6.0°C 75% 3.8 mph NE6.1 kmh NE 4.7 mph7.6 kmh 30.14 in1020.7 mb 0.00 in0.0 mm 0.00 in0.0 mm 0.00 in0.0 mm
01:33 AM 27.7°F-2.4°C 20.8°F-6.2°C 75% 3.9 mph 6.3 kmh 4.3 mph6.9 kmh 30.15 in1021.0 mb 0.00 in0.0 mm 0.00 in0.0 mm 0.00 in0.0 mm
01:38 AM 27.5°F-2.5°C 20.9°F-6.2°C 76% 2.2 mph NNW3.5 kmh NNW 4.3 mph6.9 kmh 30.14 in1020.7 mb 0.00 in0.0 mm 0.00 in0.0 mm 0.00 in0.0 mm
01:43 AM 27.2°F-2.7°C 20.3°F-6.5°C 75% 0.8 mph NNW1.3 kmh NNW 2.9 mph4.7 kmh 30.14 in1020.7 mb 0.00 in0.0 mm 0.00 in0.0 mm 0.00 in0.0 mm
01:48 AM 27.0°F-2.8°C 20.1°F-6.6°C 75% 1.4 mph 2.3 kmh 2.5 mph4.0 kmh 30.14 in1020.7 mb 0.00 in0.0 mm 0.00 in0.0 mm 0.00 in0.0 mm
01:53 AM 27.0°F-2.8°C 20.1°F-6.6°C 75% 2.2 mph NNW3.5 kmh NNW 2.2 mph3.5 kmh 30.14 in1020.7 mb 0.00 in0.0 mm 0.00 in0.0 mm 0.00 in0.0 mm
01:58 AM 27.0°F-2.8°C 20.3°F-6.5°C 76% 2.0 mph 3.2 kmh 2.5 mph4.0 kmh 30.14 in1020.7 mb 0.00 in0.0 mm 0.00 in0.0 mm 0.00 in0.0 mm
02:04 AM 27.0°F-2.8°C 20.1°F-6.6°C 75% 1.8 mph 2.9 kmh 2.5 mph4.0 kmh 30.14 in1020.7 mb 0.00 in0.0 mm 0.00 in0.0 mm 0.00 in0.0 mm
02:09 AM 27.0°F-2.8°C 20.1°F-6.6°C 75% 1.8 mph NE2.9 kmh NE 2.9 mph4.7 kmh 30.14 in1020.7 mb 0.00 in0.0 mm 0.00 in0.0 mm 0.00 in0.0 mm
02:13 AM 27.0°F-2.8°C 20.3°F-6.5°C 76% Calm Calm 2.9 mph4.7 kmh 30.14 in1020.7 mb 0.00 in0.0 mm 0.00 in0.0 mm 0.00 in0.0 mm
02:18 AM 26.8°F-2.9°C 19.9°F-6.7°C 75% Calm Calm 1.1 mph1.8 kmh 30.14 in1020.7 mb 0.00 in0.0 mm 0.00 in0.0 mm 0.00 in0.0 mm
02:23 AM 26.8°F-2.9°C 20.2°F-6.6°C 76% Calm Calm 2.9 mph4.7 kmh 30.14 in1020.7 mb 0.00 in0.0 mm 0.00 in0.0 mm 0.00 in0.0 mm
02:28 AM 27.0°F-2.8°C 20.3°F-6.5°C 76% Calm Calm 2.9 mph4.7 kmh 30.14 in1020.7 mb 0.00 in0.0 mm 0.00 in0.0 mm 0.00 in0.0 mm
02:33 AM 26.5°F-3.1°C 19.9°F-6.7°C 76% 2.6 mph NNE4.2 kmh NNE 3.1 mph5.0 kmh 30.14 in1020.7 mb 0.00 in0.0 mm 0.00 in0.0 mm 0.00 in0.0 mm
02:38 AM 26.3°F-3.2°C 19.7°F-6.8°C 76% Calm Calm 3.1 mph5.0 kmh 30.15 in1021.0 mb 0.00 in0.0 mm 0.00 in0.0 mm 0.00 in0.0 mm
02:43 AM 26.1°F-3.3°C 19.5°F-6.9°C 76% 2.6 mph NE4.2 kmh NE 3.8 mph6.1 kmh 30.15 in1021.0 mb 0.00 in0.0 mm 0.00 in0.0 mm 0.00 in0.0 mm
02:48 AM 26.3°F-3.2°C 20.0°F-6.7°C 77% 3.8 mph NNE6.1 kmh NNE 4.5 mph7.2 kmh 30.14 in1020.7 mb 0.00 in0.0 mm 0.00 in0.0 mm 0.00 in0.0 mm
02:53 AM 26.5°F-3.1°C 20.2°F-6.6°C 77% 2.6 mph NE4.2 kmh NE 4.5 mph7.2 kmh 30.14 in1020.7 mb 0.00 in0.0 mm 0.00 in0.0 mm 0.00 in0.0 mm
02:58 AM 26.5°F-3.1°C 20.2°F-6.6°C 77% 1.2 mph 1.9 kmh 4.0 mph6.4 kmh 30.14 in1020.7 mb 0.00 in0.0 mm 0.00 in0.0 mm 0.00 in0.0 mm
03:04 AM 26.3°F-3.2°C 20.0°F-6.7°C 77% 1.5 mph 2.4 kmh 2.2 mph3.5 kmh 30.14 in1020.7 mb 0.00 in0.0 mm 0.00 in0.0 mm 0.00 in0.0 mm
03:09 AM 25.7°F-3.5°C 19.5°F-6.9°C 77% 0.6 mph 1.0 kmh 1.8 mph2.9 kmh 30.14 in1020.7 mb 0.00 in0.0 mm 0.00 in0.0 mm 0.00 in0.0 mm
03:14 AM 25.6°F-3.6°C 19.4°F-7.0°C 77% Calm Calm 1.1 mph1.8 kmh 30.14 in1020.7 mb 0.00 in0.0 mm 0.00 in0.0 mm 0.00 in0.0 mm
03:19 AM 25.4°F-3.7°C 19.4°F-7.0°C 78% 2.2 mph E3.5 kmh E 2.7 mph4.3 kmh 30.14 in1020.7 mb 0.00 in0.0 mm 0.00 in0.0 mm 0.00 in0.0 mm
03:24 AM 25.0°F-3.9°C 19.2°F-7.1°C 78% 1.4 mph E2.3 kmh E 3.4 mph5.5 kmh 30.14 in1020.7 mb 0.00 in0.0 mm 0.00 in0.0 mm 0.00 in0.0 mm
03:29 AM 24.8°F-4.0°C 19.0°F-7.2°C 78% 0.8 mph E1.3 kmh E 3.4 mph5.5 kmh 30.14 in1020.7 mb 0.00 in0.0 mm 0.00 in0.0 mm 0.00 in0.0 mm
03:34 AM 24.5°F-4.2°C 18.6°F-7.4°C 78% Calm Calm 1.6 mph2.6 kmh 30.14 in1020.7 mb 0.00 in0.0 mm 0.00 in0.0 mm 0.00 in0.0 mm
03:38 AM 24.3°F-4.3°C 18.5°F-7.5°C 78% Calm Calm 0.4 mph0.6 kmh 30.14 in1020.7 mb 0.00 in0.0 mm 0.00 in0.0 mm 0.00 in0.0 mm
03:43 AM 24.1°F-4.4°C 18.5°F-7.5°C 79% 0.8 mph E1.3 kmh E 3.1 mph5.0 kmh 30.14 in1020.7 mb 0.00 in0.0 mm 0.00 in0.0 mm 0.00 in0.0 mm
03:48 AM 24.3°F-4.3°C 18.7°F-7.4°C 79% 1.3 mph E2.1 kmh E 3.1 mph5.0 kmh 30.14 in1020.7 mb 0.00 in0.0 mm 0.00 in0.0 mm 0.00 in0.0 mm
03:53 AM 24.5°F-4.2°C 18.9°F-7.3°C 79% 1.6 mph NNW2.6 kmh NNW 2.5 mph4.0 kmh 30.14 in1020.7 mb 0.00 in0.0 mm 0.00 in0.0 mm 0.00 in0.0 mm
03:58 AM 24.7°F-4.1°C 19.1°F-7.2°C 79% 2.7 mph 4.3 kmh 2.7 mph4.3 kmh 30.15 in1021.0 mb 0.00 in0.0 mm 0.00 in0.0 mm 0.00 in0.0 mm
04:04 AM 24.5°F-4.2°C 18.9°F-7.3°C 79% 3.2 mph 5.1 kmh 4.5 mph7.2 kmh 30.15 in1021.0 mb 0.00 in0.0 mm 0.00 in0.0 mm 0.00 in0.0 mm
04:09 AM 24.1°F-4.4°C 18.5°F-7.5°C 79% 5.2 mph 8.4 kmh 5.4 mph8.7 kmh 30.15 in1021.0 mb 0.00 in0.0 mm 0.00 in0.0 mm 0.00 in0.0 mm
04:14 AM 24.1°F-4.4°C 18.5°F-7.5°C 79% 1.3 mph ENE2.1 kmh ENE 5.4 mph8.7 kmh 30.15 in1021.0 mb 0.00 in0.0 mm 0.00 in0.0 mm 0.00 in0.0 mm
04:19 AM 24.1°F-4.4°C 18.5°F-7.5°C 79% 4.3 mph N6.9 kmh N 5.4 mph8.7 kmh 30.15 in1021.0 mb 0.00 in0.0 mm 0.00 in0.0 mm 0.00 in0.0 mm
04:24 AM 24.1°F-4.4°C 18.5°F-7.5°C 79% 2.5 mph 4.0 kmh 4.5 mph7.2 kmh 30.14 in1020.7 mb 0.00 in0.0 mm 0.00 in0.0 mm 0.00 in0.0 mm
04:29 AM 24.1°F-4.4°C 18.5°F-7.5°C 79% 2.4 mph 3.9 kmh 4.3 mph6.9 kmh 30.14 in1020.7 mb 0.00 in0.0 mm 0.00 in0.0 mm 0.00 in0.0 mm
04:34 AM 23.9°F-4.5°C 18.4°F-7.6°C 79% 2.7 mph 4.3 kmh 4.3 mph6.9 kmh 30.14 in1020.7 mb 0.00 in0.0 mm 0.00 in0.0 mm 0.00 in0.0 mm
04:39 AM 23.6°F-4.7°C 17.7°F-7.9°C 78% 2.2 mph W3.5 kmh W 3.4 mph5.5 kmh 30.14 in1020.7 mb 0.00 in0.0 mm 0.00 in0.0 mm 0.00 in0.0 mm
04:44 AM 23.4°F-4.8°C 17.9°F-7.8°C 79% 2.0 mph NW3.2 kmh NW 3.4 mph5.5 kmh 30.15 in1021.0 mb 0.00 in0.0 mm 0.00 in0.0 mm 0.00 in0.0 mm
04:49 AM 23.4°F-4.8°C 17.9°F-7.8°C 79% 3.4 mph N5.5 kmh N 4.5 mph7.2 kmh 30.14 in1020.7 mb 0.00 in0.0 mm 0.00 in0.0 mm 0.00 in0.0 mm
04:54 AM 23.4°F-4.8°C 17.9°F-7.8°C 79% 2.2 mph 3.5 kmh 4.5 mph7.2 kmh 30.14 in1020.7 mb 0.00 in0.0 mm 0.00 in0.0 mm 0.00 in0.0 mm
04:58 AM 23.6°F-4.7°C 18.1°F-7.7°C 79% 3.4 mph 5.5 kmh 3.4 mph5.5 kmh 30.14 in1020.7 mb 0.00 in0.0 mm 0.00 in0.0 mm 0.00 in0.0 mm
05:04 AM 24.1°F-4.4°C 18.9°F-7.3°C 80% 2.4 mph NNW3.9 kmh NNW 4.0 mph6.4 kmh 30.14 in1020.7 mb 0.00 in0.0 mm 0.00 in0.0 mm 0.00 in0.0 mm
05:09 AM 24.5°F-4.2°C 19.3°F-7.1°C 80% 3.1 mph 5.0 kmh 4.0 mph6.4 kmh 30.15 in1021.0 mb 0.00 in0.0 mm 0.00 in0.0 mm 0.00 in0.0 mm
05:14 AM 24.8°F-4.0°C 19.6°F-6.9°C 80% 1.9 mph 3.1 kmh 3.8 mph6.1 kmh 30.15 in1021.0 mb 0.00 in0.0 mm 0.00 in0.0 mm 0.00 in0.0 mm
05:19 AM 25.0°F-3.9°C 19.8°F-6.8°C 80% 4.2 mph N6.8 kmh N 5.1 mph8.2 kmh 30.14 in1020.7 mb 0.00 in0.0 mm 0.00 in0.0 mm 0.00 in0.0 mm
05:24 AM 25.6°F-3.6°C 20.5°F-6.4°C 81% 4.3 mph NE6.9 kmh NE 6.3 mph10.1 kmh 30.14 in1020.7 mb 0.00 in0.0 mm 0.00 in0.0 mm 0.00 in0.0 mm
05:29 AM 25.9°F-3.4°C 20.6°F-6.3°C 80% 5.3 mph NE8.5 kmh NE 6.3 mph10.1 kmh 30.14 in1020.7 mb 0.00 in0.0 mm 0.00 in0.0 mm 0.00 in0.0 mm
05:34 AM 26.3°F-3.2°C 21.5°F-5.8°C 82% 5.5 mph NE8.9 kmh NE 6.7 mph10.8 kmh 30.14 in1020.7 mb 0.00 in0.0 mm 0.00 in0.0 mm 0.00 in0.0 mm
05:39 AM 26.3°F-3.2°C 21.5°F-5.8°C 82% 4.2 mph 6.8 kmh 6.7 mph10.8 kmh 30.14 in1020.7 mb 0.00 in0.0 mm 0.00 in0.0 mm 0.00 in0.0 mm
05:44 AM 26.5°F-3.1°C 21.7°F-5.7°C 82% 4.5 mph 7.2 kmh 5.4 mph8.7 kmh 30.14 in1020.7 mb 0.00 in0.0 mm 0.00 in0.0 mm 0.00 in0.0 mm
05:49 AM 26.5°F-3.1°C 21.7°F-5.7°C 82% 2.6 mph 4.2 kmh 5.1 mph8.2 kmh 30.14 in1020.7 mb 0.00 in0.0 mm 0.00 in0.0 mm 0.00 in0.0 mm
05:54 AM 26.3°F-3.2°C 21.5°F-5.8°C 82% 1.8 mph ESE2.9 kmh ESE 3.6 mph5.8 kmh 30.15 in1021.0 mb 0.00 in0.0 mm 0.00 in0.0 mm 0.00 in0.0 mm
05:59 AM 26.3°F-3.2°C 21.5°F-5.8°C 82% 2.1 mph NNW3.4 kmh NNW 3.4 mph5.5 kmh 30.15 in1021.0 mb 0.00 in0.0 mm 0.00 in0.0 mm 0.00 in0.0 mm
06:04 AM 26.3°F-3.2°C 21.5°F-5.8°C 82% 4.6 mph NE7.4 kmh NE 4.9 mph7.9 kmh 30.14 in1020.7 mb 0.00 in0.0 mm 0.00 in0.0 mm 0.00 in0.0 mm
06:09 AM 26.1°F-3.3°C 21.3°F-5.9°C 82% 0.9 mph ENE1.4 kmh ENE 5.1 mph8.2 kmh 30.14 in1020.7 mb 0.00 in0.0 mm 0.00 in0.0 mm 0.00 in0.0 mm
06:14 AM 26.3°F-3.2°C 21.5°F-5.8°C 82% 1.6 mph 2.6 kmh 5.1 mph8.2 kmh 30.14 in1020.7 mb 0.00 in0.0 mm 0.00 in0.0 mm 0.00 in0.0 mm
06:19 AM 26.1°F-3.3°C 21.3°F-5.9°C 82% 1.1 mph 1.8 kmh 3.1 mph5.0 kmh 30.14 in1020.7 mb 0.00 in0.0 mm 0.00 in0.0 mm 0.00 in0.0 mm
06:24 AM 26.1°F-3.3°C 21.1°F-6.1°C 81% 2.5 mph 4.0 kmh 3.1 mph5.0 kmh 30.14 in1020.7 mb 0.00 in0.0 mm 0.00 in0.0 mm 0.00 in0.0 mm
06:29 AM 26.3°F-3.2°C 21.5°F-5.8°C 82% 2.8 mph N4.5 kmh N 3.4 mph5.5 kmh 30.14 in1020.7 mb 0.00 in0.0 mm 0.00 in0.0 mm 0.00 in0.0 mm
06:34 AM 26.6°F-3.0°C 22.2°F-5.4°C 83% 4.0 mph 6.4 kmh 5.4 mph8.7 kmh 30.14 in1020.7 mb 0.00 in0.0 mm 0.00 in0.0 mm 0.00 in0.0 mm
06:39 AM 27.0°F-2.8°C 22.5°F-5.3°C 83% 4.3 mph NNE6.9 kmh NNE 5.6 mph9.0 kmh 30.14 in1020.7 mb 0.00 in0.0 mm 0.00 in0.0 mm 0.00 in0.0 mm
06:44 AM 27.2°F-2.7°C 22.7°F-5.2°C 83% 2.2 mph NNW3.5 kmh NNW 5.6 mph9.0 kmh 30.15 in1021.0 mb 0.00 in0.0 mm 0.00 in0.0 mm 0.00 in0.0 mm
06:49 AM 27.4°F-2.6°C 22.9°F-5.1°C 83% 2.0 mph N3.2 kmh N 4.0 mph6.4 kmh 30.15 in1021.0 mb 0.00 in0.0 mm 0.00 in0.0 mm 0.00 in0.0 mm
06:54 AM 27.7°F-2.4°C 23.2°F-4.9°C 83% 5.3 mph 8.5 kmh 5.6 mph9.0 kmh 30.15 in1021.0 mb 0.00 in0.0 mm 0.00 in0.0 mm 0.00 in0.0 mm
07:00 AM 28.3°F-2.1°C 23.8°F-4.6°C 83% 3.2 mph NNE5.1 kmh NNE 5.6 mph9.0 kmh 30.15 in1021.0 mb 0.00 in0.0 mm 0.00 in0.0 mm 0.00 in0.0 mm
07:05 AM 29.2°F-1.6°C 24.7°F-4.1°C 83% 3.3 mph N5.3 kmh N 6.3 mph10.1 kmh 30.15 in1021.0 mb 0.00 in0.0 mm 0.00 in0.0 mm 0.00 in0.0 mm
07:10 AM 29.9°F-1.2°C 25.4°F-3.7°C 83% 3.4 mph 5.5 kmh 6.3 mph10.1 kmh 30.15 in1021.0 mb 0.00 in0.0 mm 0.00 in0.0 mm 0.00 in0.0 mm
07:15 AM 30.4°F-0.9°C 25.9°F-3.4°C 83% 2.3 mph SW3.7 kmh SW 3.8 mph6.1 kmh 30.15 in1021.0 mb 0.00 in0.0 mm 0.00 in0.0 mm 0.00 in0.0 mm
07:20 AM 30.6°F-0.8°C 26.1°F-3.3°C 83% 1.3 mph SSW2.1 kmh SSW 2.9 mph4.7 kmh 30.15 in1021.0 mb 0.00 in0.0 mm 0.00 in0.0 mm 0.00 in0.0 mm
07:25 AM 31.0°F-0.6°C 26.7°F-2.9°C 84% Calm Calm 1.8 mph2.9 kmh 30.15 in1021.0 mb 0.00 in0.0 mm 0.00 in0.0 mm 0.00 in0.0 mm
07:29 AM 31.0°F-0.6°C 26.7°F-2.9°C 84% 0.8 mph SW1.3 kmh SW 1.1 mph1.8 kmh 30.15 in1021.0 mb 0.00 in0.0 mm 0.00 in0.0 mm 0.00 in0.0 mm
07:34 AM 31.3°F-0.4°C 27.1°F-2.7°C 84% 3.0 mph E4.8 kmh E 3.4 mph5.5 kmh 30.15 in1021.0 mb 0.00 in0.0 mm 0.00 in0.0 mm 0.00 in0.0 mm
07:39 AM 31.7°F-0.2°C 27.5°F-2.5°C 84% 2.8 mph SE4.5 kmh SE 3.6 mph5.8 kmh 30.15 in1021.0 mb 0.00 in0.0 mm 0.00 in0.0 mm 0.00 in0.0 mm
07:44 AM 32.0°F0.0°C 27.8°F-2.3°C 84% 1.7 mph ESE2.7 kmh ESE 3.6 mph5.8 kmh 30.15 in1021.0 mb 0.00 in0.0 mm 0.00 in0.0 mm 0.00 in0.0 mm
07:49 AM 32.6°F0.3°C 28.3°F-2.1°C 84% 0.9 mph SE1.4 kmh SE 2.0 mph3.2 kmh 30.15 in1021.0 mb 0.00 in0.0 mm 0.00 in0.0 mm 0.00 in0.0 mm
07:54 AM 33.1°F0.6°C 28.8°F-1.8°C 84% 4.7 mph E7.6 kmh E 5.8 mph9.3 kmh 30.14 in1020.7 mb 0.00 in0.0 mm 0.00 in0.0 mm 0.00 in0.0 mm
08:00 AM 34.0°F1.1°C 29.9°F-1.2°C 85% 6.1 mph ESE9.8 kmh ESE 8.3 mph13.4 kmh 30.14 in1020.7 mb 0.00 in0.0 mm 0.00 in0.0 mm 0.00 in0.0 mm
08:05 AM 34.7°F1.5°C 30.6°F-0.8°C 85% 3.7 mph E6.0 kmh E 8.3 mph13.4 kmh 30.15 in1021.0 mb 0.00 in0.0 mm 0.00 in0.0 mm 0.00 in0.0 mm
08:10 AM 35.1°F1.7°C 30.7°F-0.7°C 84% 5.2 mph ENE8.4 kmh ENE 5.8 mph9.3 kmh 30.15 in1021.0 mb 0.00 in0.0 mm 0.00 in0.0 mm 0.00 in0.0 mm
08:15 AM 35.5°F1.9°C 31.3°F-0.4°C 85% 5.9 mph E9.5 kmh E 6.9 mph11.1 kmh 30.15 in1021.0 mb 0.00 in0.0 mm 0.00 in0.0 mm 0.00 in0.0 mm
08:20 AM 35.6°F2.0°C 31.2°F-0.4°C 84% 6.3 mph E10.1 kmh E 6.9 mph11.1 kmh 30.15 in1021.0 mb 0.00 in0.0 mm 0.00 in0.0 mm 0.00 in0.0 mm
08:25 AM 36.5°F2.5°C 32.1°F0.1°C 84% 4.3 mph E6.9 kmh E 6.7 mph10.8 kmh 30.15 in1021.0 mb 0.00 in0.0 mm 0.00 in0.0 mm 0.00 in0.0 mm
08:30 AM 37.3°F2.9°C 32.6°F0.3°C 83% 5.1 mph ESE8.2 kmh ESE 5.4 mph8.7 kmh 30.15 in1021.0 mb 0.00 in0.0 mm 0.00 in0.0 mm 0.00 in0.0 mm
08:35 AM 38.0°F3.3°C 33.3°F0.7°C 83% 3.1 mph ESE5.0 kmh ESE 5.4 mph8.7 kmh 30.15 in1021.0 mb 0.00 in0.0 mm 0.00 in0.0 mm 0.00 in0.0 mm
08:40 AM 38.9°F3.8°C 33.8°F1.0°C 82% 2.7 mph SE4.3 kmh SE 4.7 mph7.6 kmh 30.15 in1021.0 mb 0.00 in0.0 mm 0.00 in0.0 mm 0.00 in0.0 mm
08:45 AM 39.4°F4.1°C 34.4°F1.3°C 82% 1.0 mph NNE1.6 kmh NNE 3.1 mph5.0 kmh 30.14 in1020.7 mb 0.00 in0.0 mm 0.00 in0.0 mm 0.00 in0.0 mm
08:50 AM 39.8°F4.3°C 34.5°F1.4°C 81% 2.5 mph NNE4.0 kmh NNE 5.1 mph8.2 kmh 30.14 in1020.7 mb 0.00 in0.0 mm 0.00 in0.0 mm 0.00 in0.0 mm
08:54 AM 39.8°F4.3°C 34.1°F1.2°C 80% 3.5 mph NW5.6 kmh NW 5.1 mph8.2 kmh 30.14 in1020.7 mb 0.00 in0.0 mm 0.00 in0.0 mm 0.00 in0.0 mm
09:00 AM 40.0°F4.4°C 33.9°F1.1°C 79% 3.2 mph WSW5.1 kmh WSW 5.6 mph9.0 kmh 30.14 in1020.7 mb 0.00 in0.0 mm 0.00 in0.0 mm 0.00 in0.0 mm
09:05 AM 40.5°F4.7°C 34.1°F1.2°C 78% 3.6 mph NNW5.8 kmh NNW 5.6 mph9.0 kmh 30.14 in1020.7 mb 0.00 in0.0 mm 0.00 in0.0 mm 0.00 in0.0 mm
09:10 AM 41.0°F5.0°C 34.3°F1.3°C 77% 2.1 mph NW3.4 kmh NW 4.0 mph6.4 kmh 30.14 in1020.7 mb 0.00 in0.0 mm 0.00 in0.0 mm 0.00 in0.0 mm
09:15 AM 41.8°F5.4°C 35.0°F1.7°C 77% 3.5 mph E5.6 kmh E 5.1 mph8.2 kmh 30.14 in1020.7 mb 0.00 in0.0 mm 0.00 in0.0 mm 0.00 in0.0 mm
09:20 AM 42.8°F6.0°C 36.1°F2.3°C 77% 0.8 mph SSE1.3 kmh SSE 5.1 mph8.2 kmh 30.13 in1020.3 mb 0.00 in0.0 mm 0.00 in0.0 mm 0.00 in0.0 mm
09:25 AM 43.6°F6.4°C 36.2°F2.3°C 75% 4.6 mph SSE7.4 kmh SSE 8.5 mph13.7 kmh 30.13 in1020.3 mb 0.00 in0.0 mm 0.00 in0.0 mm 0.00 in0.0 mm
09:30 AM 44.5°F6.9°C 36.6°F2.6°C 74% 7.5 mph S12.1 kmh S 8.5 mph13.7 kmh 30.12 in1020.0 mb 0.00 in0.0 mm 0.00 in0.0 mm 0.00 in0.0 mm
09:35 AM 45.4°F7.4°C 37.5°F3.1°C 74% 8.1 mph ESE13.0 kmh ESE 10.1 mph16.3 kmh 30.12 in1020.0 mb 0.00 in0.0 mm 0.00 in0.0 mm 0.00 in0.0 mm
09:40 AM 45.7°F7.6°C 37.9°F3.3°C 74% 10.4 mph ESE16.7 kmh ESE 12.1 mph19.5 kmh 30.12 in1020.0 mb 0.00 in0.0 mm 0.00 in0.0 mm 0.00 in0.0 mm
09:45 AM 45.9°F7.7°C 37.5°F3.1°C 72% 7.4 mph ESE11.9 kmh ESE 13.6 mph21.9 kmh 30.12 in1020.0 mb 0.00 in0.0 mm 0.00 in0.0 mm 0.00 in0.0 mm
09:50 AM 46.4°F8.0°C 37.6°F3.1°C 71% 7.7 mph E12.4 kmh E 13.6 mph21.9 kmh 30.12 in1020.0 mb 0.00 in0.0 mm 0.00 in0.0 mm 0.00 in0.0 mm
09:55 AM 46.8°F8.2°C 37.6°F3.1°C 70% 8.8 mph SE14.2 kmh SE 11.4 mph18.3 kmh 30.13 in1020.3 mb 0.00 in0.0 mm 0.00 in0.0 mm 0.00 in0.0 mm
10:00 AM 47.2°F8.4°C 36.7°F2.6°C 67% 9.8 mph E15.8 kmh E 11.4 mph18.3 kmh 30.13 in1020.3 mb 0.00 in0.0 mm 0.00 in0.0 mm 0.00 in0.0 mm
10:05 AM 47.3°F8.5°C 36.6°F2.6°C 66% 6.9 mph ESE11.1 kmh ESE 11.9 mph19.2 kmh 30.13 in1020.3 mb 0.00 in0.0 mm 0.00 in0.0 mm 0.00 in0.0 mm
10:10 AM 48.1°F8.9°C 37.2°F2.9°C 66% 4.7 mph ESE7.6 kmh ESE 11.9 mph19.2 kmh 30.13 in1020.3 mb 0.00 in0.0 mm 0.00 in0.0 mm 0.00 in0.0 mm
10:15 AM 48.8°F9.3°C 37.1°F2.8°C 64% 7.1 mph E11.4 kmh E 8.5 mph13.7 kmh 30.12 in1020.0 mb 0.00 in0.0 mm 0.00 in0.0 mm 0.00 in0.0 mm
10:20 AM 49.5°F9.7°C 37.0°F2.8°C 62% 5.8 mph E9.3 kmh E 10.3 mph16.6 kmh 30.12 in1020.0 mb 0.00 in0.0 mm 0.00 in0.0 mm 0.00 in0.0 mm
10:25 AM 50.0°F10.0°C 38.4°F3.6°C 64% 7.7 mph ESE12.4 kmh ESE 10.3 mph16.6 kmh 30.12 in1020.0 mb 0.00 in0.0 mm 0.00 in0.0 mm 0.00 in0.0 mm
10:30 AM 50.8°F10.4°C 36.5°F2.5°C 58% 8.5 mph ENE13.7 kmh ENE 10.5 mph16.9 kmh 30.12 in1020.0 mb 0.00 in0.0 mm 0.00 in0.0 mm 0.00 in0.0 mm
10:35 AM 50.9°F10.5°C 37.1°F2.8°C 59% 7.9 mph NE12.7 kmh NE 10.5 mph16.9 kmh 30.12 in1020.0 mb 0.00 in0.0 mm 0.00 in0.0 mm 0.00 in0.0 mm
10:40 AM 51.1°F10.6°C 36.8°F2.7°C 58% 3.4 mph NE5.5 kmh NE 8.1 mph13.0 kmh 30.12 in1020.0 mb 0.00 in0.0 mm 0.00 in0.0 mm 0.00 in0.0 mm
10:45 AM 50.9°F10.5°C 34.8°F1.6°C 54% 7.9 mph NNE12.7 kmh NNE 9.4 mph15.1 kmh 30.11 in1019.6 mb 0.00 in0.0 mm 0.00 in0.0 mm 0.00 in0.0 mm
10:50 AM 50.9°F10.5°C 34.8°F1.6°C 54% 9.3 mph NE15.0 kmh NE 10.1 mph16.3 kmh 30.11 in1019.6 mb 0.00 in0.0 mm 0.00 in0.0 mm 0.00 in0.0 mm
10:55 AM 51.1°F10.6°C 34.1°F1.2°C 52% 8.4 mph E13.5 kmh E 11.4 mph18.3 kmh 30.11 in1019.6 mb 0.00 in0.0 mm 0.00 in0.0 mm 0.00 in0.0 mm
11:01 AM 51.5°F10.8°C 34.4°F1.3°C 52% 6.1 mph ENE9.8 kmh ENE 11.4 mph18.3 kmh 30.11 in1019.6 mb 0.00 in0.0 mm 0.00 in0.0 mm 0.00 in0.0 mm
11:06 AM 52.2°F11.2°C 35.1°F1.7°C 52% 5.7 mph E9.2 kmh E 8.5 mph13.7 kmh 30.11 in1019.6 mb 0.00 in0.0 mm 0.00 in0.0 mm 0.00 in0.0 mm
11:10 AM 53.3°F11.8°C 37.0°F2.8°C 54% 6.9 mph ESE11.1 kmh ESE 9.4 mph15.1 kmh 30.11 in1019.6 mb 0.00 in0.0 mm 0.00 in0.0 mm 0.00 in0.0 mm
11:15 AM 54.4°F12.4°C 38.0°F3.3°C 54% 4.7 mph SE7.6 kmh SE 9.4 mph15.1 kmh 30.10 in1019.3 mb 0.00 in0.0 mm 0.00 in0.0 mm 0.00 in0.0 mm
11:20 AM 55.1°F12.8°C 38.6°F3.7°C 54% 6.4 mph E10.3 kmh E 8.5 mph13.7 kmh 30.10 in1019.3 mb 0.00 in0.0 mm 0.00 in0.0 mm 0.00 in0.0 mm
11:25 AM 55.6°F13.1°C 38.2°F3.4°C 52% 8.9 mph SE14.3 kmh SE 11.4 mph18.3 kmh 30.10 in1019.3 mb 0.00 in0.0 mm 0.00 in0.0 mm 0.00 in0.0 mm
11:30 AM 56.0°F13.3°C 38.1°F3.4°C 51% 10.3 mph E16.6 kmh E 13.4 mph21.6 kmh 30.10 in1019.3 mb 0.00 in0.0 mm 0.00 in0.0 mm 0.00 in0.0 mm
11:35 AM 56.3°F13.5°C 38.4°F3.6°C 51% 7.9 mph E12.7 kmh E 13.4 mph21.6 kmh 30.10 in1019.3 mb 0.00 in0.0 mm 0.00 in0.0 mm 0.00 in0.0 mm
11:40 AM 57.1°F13.9°C 38.7°F3.7°C 50% 6.4 mph E10.3 kmh E 10.7 mph17.2 kmh 30.10 in1019.3 mb 0.00 in0.0 mm 0.00 in0.0 mm 0.00 in0.0 mm
11:45 AM 57.8°F14.3°C 39.3°F4.1°C 50% 5.3 mph SE8.5 kmh SE 10.7 mph17.2 kmh 30.09 in1019.0 mb 0.00 in0.0 mm 0.00 in0.0 mm 0.00 in0.0 mm
11:50 AM 58.5°F14.7°C 39.4°F4.1°C 49% 7.0 mph E11.3 kmh E 9.2 mph14.8 kmh 30.10 in1019.3 mb 0.00 in0.0 mm 0.00 in0.0 mm 0.00 in0.0 mm
11:55 AM 59.0°F15.0°C 40.5°F4.7°C 50% 8.0 mph ESE12.9 kmh ESE 9.2 mph14.8 kmh 30.10 in1019.3 mb 0.00 in0.0 mm 0.00 in0.0 mm 0.00 in0.0 mm
12:01 PM 60.1°F15.6°C 40.9°F4.9°C 49% 5.9 mph ESE9.5 kmh ESE 9.2 mph14.8 kmh 30.09 in1019.0 mb 0.00 in0.0 mm 0.00 in0.0 mm 0.00 in0.0 mm
12:06 PM 60.5°F15.8°C 38.3°F3.5°C 44% 7.3 mph ENE11.7 kmh ENE 9.2 mph14.8 kmh 30.08 in1018.6 mb 0.00 in0.0 mm 0.00 in0.0 mm 0.00 in0.0 mm
12:11 PM 60.1°F15.6°C 38.0°F3.3°C 44% 6.4 mph ESE10.3 kmh ESE 9.2 mph14.8 kmh 30.08 in1018.6 mb 0.00 in0.0 mm 0.00 in0.0 mm 0.00 in0.0 mm
12:16 PM 59.8°F15.4°C 38.9°F3.8°C 46% 5.1 mph ESE8.2 kmh ESE 8.3 mph13.4 kmh 30.08 in1018.6 mb 0.00 in0.0 mm 0.00 in0.0 mm 0.00 in0.0 mm
12:21 PM 59.8°F15.4°C 38.3°F3.5°C 45% 5.6 mph E9.0 kmh E 7.6 mph12.2 kmh 30.08 in1018.6 mb 0.00 in0.0 mm 0.00 in0.0 mm 0.00 in0.0 mm
12:26 PM 59.8°F15.4°C 38.9°F3.8°C 46% 1.6 mph NE2.6 kmh NE 6.9 mph11.1 kmh 30.08 in1018.6 mb 0.00 in0.0 mm 0.00 in0.0 mm 0.00 in0.0 mm
12:30 PM 60.1°F15.6°C 39.2°F4.0°C 46% 2.5 mph ENE4.0 kmh ENE 5.4 mph8.7 kmh 30.08 in1018.6 mb 0.00 in0.0 mm 0.00 in0.0 mm 0.00 in0.0 mm
12:35 PM 60.3°F15.7°C 38.8°F3.8°C 45% 2.0 mph ENE3.2 kmh ENE 4.7 mph7.6 kmh 30.08 in1018.6 mb 0.00 in0.0 mm 0.00 in0.0 mm 0.00 in0.0 mm
12:40 PM 61.2°F16.2°C 39.6°F4.2°C 45% 8.0 mph SSE12.9 kmh SSE 11.4 mph18.3 kmh 30.08 in1018.6 mb 0.00 in0.0 mm 0.00 in0.0 mm 0.00 in0.0 mm
12:45 PM 61.6°F16.4°C 39.3°F4.1°C 44% 11.8 mph S19.0 kmh S 12.3 mph19.8 kmh 30.07 in1018.3 mb 0.00 in0.0 mm 0.00 in0.0 mm 0.00 in0.0 mm
12:50 PM 61.6°F16.4°C 38.7°F3.7°C 43% 10.4 mph SW16.7 kmh SW 12.3 mph19.8 kmh 30.07 in1018.3 mb 0.00 in0.0 mm 0.00 in0.0 mm 0.00 in0.0 mm
12:55 PM 61.4°F16.3°C 37.5°F3.1°C 41% 11.1 mph S17.9 kmh S 12.1 mph19.5 kmh 30.07 in1018.3 mb 0.00 in0.0 mm 0.00 in0.0 mm 0.00 in0.0 mm
01:01 PM 61.6°F16.4°C 38.2°F3.4°C 42% 9.7 mph SSE15.6 kmh SSE 11.9 mph19.2 kmh 30.07 in1018.3 mb 0.00 in0.0 mm 0.00 in0.0 mm 0.00 in0.0 mm
01:06 PM 61.7°F16.5°C 37.7°F3.2°C 41% 11.1 mph SW17.9 kmh SW 13.6 mph21.9 kmh 30.07 in1018.3 mb 0.00 in0.0 mm 0.00 in0.0 mm 0.00 in0.0 mm
01:11 PM 61.0°F16.1°C 36.6°F2.6°C 40% 11.8 mph S19.0 kmh S 15.7 mph25.3 kmh 30.07 in1018.3 mb 0.00 in0.0 mm 0.00 in0.0 mm 0.00 in0.0 mm
01:16 PM 60.1°F15.6°C 36.3°F2.4°C 41% 9.1 mph S14.6 kmh S 15.7 mph25.3 kmh 30.07 in1018.3 mb 0.00 in0.0 mm 0.00 in0.0 mm 0.00 in0.0 mm
01:21 PM 59.2°F15.1°C 35.5°F1.9°C 41% 7.9 mph SW12.7 kmh SW 15.2 mph24.5 kmh 30.07 in1018.3 mb 0.00 in0.0 mm 0.00 in0.0 mm 0.00 in0.0 mm
01:26 PM 58.9°F14.9°C 35.7°F2.1°C 42% 6.5 mph SSW10.5 kmh SSW 15.2 mph24.5 kmh 30.06 in1017.9 mb 0.00 in0.0 mm 0.00 in0.0 mm 0.00 in0.0 mm
01:31 PM 59.2°F15.1°C 36.1°F2.3°C 42% 7.5 mph SSW12.1 kmh SSW 10.5 mph16.9 kmh 30.06 in1017.9 mb 0.00 in0.0 mm 0.00 in0.0 mm 0.00 in0.0 mm
01:36 PM 59.4°F15.2°C 36.2°F2.3°C 42% 8.2 mph S13.2 kmh S 10.1 mph16.3 kmh 30.06 in1017.9 mb 0.00 in0.0 mm 0.00 in0.0 mm 0.00 in0.0 mm
01:41 PM 59.6°F15.3°C 35.8°F2.1°C 41% 9.8 mph SW15.8 kmh SW 11.9 mph19.2 kmh 30.05 in1017.6 mb 0.00 in0.0 mm 0.00 in0.0 mm 0.00 in0.0 mm
01:46 PM 59.8°F15.4°C 35.4°F1.9°C 40% 11.6 mph S18.7 kmh S 14.8 mph23.8 kmh 30.05 in1017.6 mb 0.00 in0.0 mm 0.00 in0.0 mm 0.00 in0.0 mm
01:51 PM 59.6°F15.3°C 35.8°F2.1°C 41% 7.1 mph SSW11.4 kmh SSW 14.8 mph23.8 kmh 30.05 in1017.6 mb 0.00 in0.0 mm 0.00 in0.0 mm 0.00 in0.0 mm
01:56 PM 59.9°F15.5°C 36.1°F2.3°C 41% 10.9 mph S17.5 kmh S 13.9 mph22.4 kmh 30.05 in1017.6 mb 0.00 in0.0 mm 0.00 in0.0 mm 0.00 in0.0 mm
02:01 PM 60.1°F15.6°C 36.3°F2.4°C 41% 13.7 mph S22.0 kmh S 15.9 mph25.6 kmh 30.05 in1017.6 mb 0.00 in0.0 mm 0.00 in0.0 mm 0.00 in0.0 mm
02:06 PM 59.8°F15.4°C 35.4°F1.9°C 40% 9.6 mph SSW15.4 kmh SSW 15.9 mph25.6 kmh 30.05 in1017.6 mb 0.00 in0.0 mm 0.00 in0.0 mm 0.00 in0.0 mm
02:11 PM 59.4°F15.2°C 35.1°F1.7°C 40% 15.1 mph SW24.3 kmh SW 15.2 mph24.5 kmh 30.04 in1017.3 mb 0.00 in0.0 mm 0.00 in0.0 mm 0.00 in0.0 mm
02:16 PM 59.2°F15.1°C 34.9°F1.6°C 40% 12.9 mph SSW20.8 kmh SSW 15.2 mph24.5 kmh 30.04 in1017.3 mb 0.00 in0.0 mm 0.00 in0.0 mm 0.00 in0.0 mm
02:21 PM 59.2°F15.1°C 34.9°F1.6°C 40% 11.0 mph SSW17.7 kmh SSW 15.0 mph24.1 kmh 30.03 in1016.9 mb 0.00 in0.0 mm 0.00 in0.0 mm 0.00 in0.0 mm
02:26 PM 59.8°F15.4°C 36.0°F2.2°C 41% 10.1 mph SW16.3 kmh SW 15.0 mph24.1 kmh 30.03 in1016.9 mb 0.00 in0.0 mm 0.00 in0.0 mm 0.00 in0.0 mm
02:31 PM 60.1°F15.6°C 35.7°F2.1°C 40% 11.6 mph S18.7 kmh S 15.0 mph24.1 kmh 30.03 in1016.9 mb 0.00 in0.0 mm 0.00 in0.0 mm 0.00 in0.0 mm
02:36 PM 60.5°F15.8°C 35.3°F1.8°C 39% 14.3 mph S23.0 kmh S 15.7 mph25.3 kmh 30.02 in1016.6 mb 0.00 in0.0 mm 0.00 in0.0 mm 0.00 in0.0 mm
02:41 PM 61.0°F16.1°C 36.6°F2.6°C 40% 12.4 mph SW20.0 kmh SW 15.7 mph25.3 kmh 30.02 in1016.6 mb 0.00 in0.0 mm 0.00 in0.0 mm 0.00 in0.0 mm
02:46 PM 61.2°F16.2°C 35.3°F1.8°C 38% 15.6 mph SSE25.1 kmh SSE 18.6 mph29.9 kmh 30.02 in1016.6 mb 0.00 in0.0 mm 0.00 in0.0 mm 0.00 in0.0 mm
02:51 PM 61.4°F16.3°C 34.7°F1.5°C 37% 16.3 mph SSW26.2 kmh SSW 18.6 mph29.9 kmh 30.01 in1016.3 mb 0.00 in0.0 mm 0.00 in0.0 mm 0.00 in0.0 mm
02:56 PM 61.0°F16.1°C 34.4°F1.3°C 37% 19.4 mph S31.2 kmh S 23.9 mph38.5 kmh 30.01 in1016.3 mb 0.00 in0.0 mm 0.00 in0.0 mm 0.00 in0.0 mm
03:00 PM 60.8°F16.0°C 34.2°F1.2°C 37% 18.6 mph S29.9 kmh S 23.9 mph38.5 kmh 30.01 in1016.3 mb 0.00 in0.0 mm 0.00 in0.0 mm 0.00 in0.0 mm
03:06 PM 61.2°F16.2°C 34.6°F1.4°C 37% 16.3 mph SW26.2 kmh SW 23.9 mph38.5 kmh 30.01 in1016.3 mb 0.00 in0.0 mm 0.00 in0.0 mm 0.00 in0.0 mm
03:11 PM 62.1°F16.7°C 36.8°F2.7°C 39% 15.3 mph SSE24.6 kmh SSE 20.8 mph33.5 kmh 30.01 in1016.3 mb 0.00 in0.0 mm 0.00 in0.0 mm 0.00 in0.0 mm
03:16 PM 62.6°F17.0°C 36.5°F2.5°C 38% 16.5 mph S26.6 kmh S 18.3 mph29.5 kmh 30.00 in1015.9 mb 0.00 in0.0 mm 0.00 in0.0 mm 0.00 in0.0 mm
03:21 PM 62.8°F17.1°C 36.0°F2.2°C 37% 15.8 mph S25.4 kmh S 18.6 mph29.9 kmh 30.00 in1015.9 mb 0.00 in0.0 mm 0.00 in0.0 mm 0.00 in0.0 mm
03:26 PM 63.0°F17.2°C 35.5°F1.9°C 36% 14.6 mph S23.5 kmh S 20.1 mph32.3 kmh 30.00 in1015.9 mb 0.00 in0.0 mm 0.00 in0.0 mm 0.00 in0.0 mm
03:31 PM 62.6°F17.0°C 35.1°F1.7°C 36% 19.5 mph SSE31.4 kmh SSE 20.8 mph33.5 kmh 30.00 in1015.9 mb 0.00 in0.0 mm 0.00 in0.0 mm 0.00 in0.0 mm
03:36 PM 62.5°F16.9°C 35.6°F2.0°C 37% 13.2 mph SSE21.2 kmh SSE 20.8 mph33.5 kmh 30.00 in1015.9 mb 0.00 in0.0 mm 0.00 in0.0 mm 0.00 in0.0 mm
03:41 PM 62.6°F17.0°C 36.5°F2.5°C 38% 10.2 mph SSE16.4 kmh SSE 16.3 mph26.2 kmh 30.00 in1015.9 mb 0.00 in0.0 mm 0.00 in0.0 mm 0.00 in0.0 mm
03:46 PM 63.0°F17.2°C 35.5°F1.9°C 36% 12.0 mph S19.3 kmh S 17.2 mph27.7 kmh 30.00 in1015.9 mb 0.00 in0.0 mm 0.00 in0.0 mm 0.00 in0.0 mm
03:51 PM 62.5°F16.9°C 33.5°F0.8°C 34% 17.5 mph S28.2 kmh S 20.1 mph32.3 kmh 30.00 in1015.9 mb 0.00 in0.0 mm 0.00 in0.0 mm 0.00 in0.0 mm
03:56 PM 61.4°F16.3°C 33.2°F0.7°C 35% 15.4 mph SSW24.8 kmh SSW 20.1 mph32.3 kmh 29.99 in1015.6 mb 0.00 in0.0 mm 0.00 in0.0 mm 0.00 in0.0 mm
04:02 PM 60.5°F15.8°C 33.2°F0.7°C 36% 17.0 mph SW27.4 kmh SW 20.1 mph32.3 kmh 29.99 in1015.6 mb 0.00 in0.0 mm 0.00 in0.0 mm 0.00 in0.0 mm
04:06 PM 60.1°F15.6°C 33.6°F0.9°C 37% 13.0 mph SSW20.9 kmh SSW 18.6 mph29.9 kmh 30.00 in1015.9 mb 0.00 in0.0 mm 0.00 in0.0 mm 0.00 in0.0 mm
04:11 PM 60.3°F15.7°C 34.5°F1.4°C 38% 11.3 mph SSW18.2 kmh SSW 19.2 mph30.9 kmh 29.99 in1015.6 mb 0.00 in0.0 mm 0.00 in0.0 mm 0.00 in0.0 mm
04:16 PM 60.3°F15.7°C 33.8°F1.0°C 37% 18.3 mph SSW29.5 kmh SSW 19.2 mph30.9 kmh 29.99 in1015.6 mb 0.00 in0.0 mm 0.00 in0.0 mm 0.00 in0.0 mm
04:21 PM 60.5°F15.8°C 33.9°F1.1°C 37% 13.6 mph S21.9 kmh S 19.2 mph30.9 kmh 29.99 in1015.6 mb 0.00 in0.0 mm 0.00 in0.0 mm 0.00 in0.0 mm
04:26 PM 60.3°F15.7°C 32.3°F0.2°C 35% 17.1 mph S27.5 kmh S 20.8 mph33.5 kmh 29.99 in1015.6 mb 0.00 in0.0 mm 0.00 in0.0 mm 0.00 in0.0 mm
04:31 PM 59.8°F15.4°C 32.6°F0.3°C 36% 17.5 mph S28.2 kmh S 20.8 mph33.5 kmh 29.99 in1015.6 mb 0.00 in0.0 mm 0.00 in0.0 mm 0.00 in0.0 mm
04:36 PM 59.6°F15.3°C 33.1°F0.6°C 37% 18.7 mph S30.1 kmh S 20.1 mph32.3 kmh 29.99 in1015.6 mb 0.00 in0.0 mm 0.00 in0.0 mm 0.00 in0.0 mm
04:41 PM 59.4°F15.2°C 32.9°F0.5°C 37% 15.0 mph S24.1 kmh S 19.7 mph31.7 kmh 29.99 in1015.6 mb 0.00 in0.0 mm 0.00 in0.0 mm 0.00 in0.0 mm
04:46 PM 59.4°F15.2°C 32.9°F0.5°C 37% 16.0 mph SSE25.7 kmh SSE 17.2 mph27.7 kmh 29.99 in1015.6 mb 0.00 in0.0 mm 0.00 in0.0 mm 0.00 in0.0 mm
04:51 PM 59.4°F15.2°C 33.7°F0.9°C 38% 12.8 mph SSE20.6 kmh SSE 17.2 mph27.7 kmh 29.98 in1015.2 mb 0.00 in0.0 mm 0.00 in0.0 mm 0.00 in0.0 mm
04:56 PM 59.0°F15.0°C 32.7°F0.4°C 37% 15.2 mph SE24.5 kmh SE 19.2 mph30.9 kmh 29.98 in1015.2 mb 0.00 in0.0 mm 0.00 in0.0 mm 0.00 in0.0 mm
05:02 PM 58.7°F14.8°C 32.3°F0.2°C 37% 17.8 mph SSE28.6 kmh SSE 19.9 mph32.0 kmh 29.98 in1015.2 mb 0.00 in0.0 mm 0.00 in0.0 mm 0.00 in0.0 mm
05:07 PM 58.3°F14.6°C 32.0°F0.0°C 37% 16.2 mph SSE26.1 kmh SSE 19.9 mph32.0 kmh 29.98 in1015.2 mb 0.00 in0.0 mm 0.00 in0.0 mm 0.00 in0.0 mm
05:12 PM 58.3°F14.6°C 32.0°F0.0°C 37% 14.1 mph S22.7 kmh S 18.6 mph29.9 kmh 29.99 in1015.6 mb 0.00 in0.0 mm 0.00 in0.0 mm 0.00 in0.0 mm
05:17 PM 58.1°F14.5°C 32.5°F0.3°C 38% 15.6 mph S25.1 kmh S 17.2 mph27.7 kmh 29.99 in1015.6 mb 0.00 in0.0 mm 0.00 in0.0 mm 0.00 in0.0 mm
05:22 PM 57.8°F14.3°C 32.2°F0.1°C 38% 17.9 mph S28.8 kmh S 20.1 mph32.3 kmh 29.99 in1015.6 mb 0.00 in0.0 mm 0.00 in0.0 mm 0.00 in0.0 mm
05:27 PM 57.4°F14.1°C 31.9°F-0.1°C 38% 13.6 mph S21.9 kmh S 20.1 mph32.3 kmh 29.98 in1015.2 mb 0.00 in0.0 mm 0.00 in0.0 mm 0.00 in0.0 mm
05:32 PM 57.2°F14.0°C 31.7°F-0.2°C 38% 15.4 mph S24.8 kmh S 17.2 mph27.7 kmh 29.98 in1015.2 mb 0.00 in0.0 mm 0.00 in0.0 mm 0.00 in0.0 mm
05:37 PM 57.2°F14.0°C 31.7°F-0.2°C 38% 17.7 mph S28.5 kmh S 22.4 mph36.0 kmh 29.98 in1015.2 mb 0.00 in0.0 mm 0.00 in0.0 mm 0.00 in0.0 mm
05:42 PM 57.2°F14.0°C 31.7°F-0.2°C 38% 16.4 mph S26.4 kmh S 22.4 mph36.0 kmh 29.98 in1015.2 mb 0.00 in0.0 mm 0.00 in0.0 mm 0.00 in0.0 mm
05:47 PM 57.1°F13.9°C 31.6°F-0.2°C 38% 16.7 mph SSW26.9 kmh SSW 19.0 mph30.6 kmh 29.99 in1015.6 mb 0.00 in0.0 mm 0.00 in0.0 mm 0.00 in0.0 mm
05:52 PM 56.7°F13.7°C 31.2°F-0.4°C 38% 16.4 mph S26.4 kmh S 21.9 mph35.2 kmh 29.99 in1015.6 mb 0.00 in0.0 mm 0.00 in0.0 mm 0.00 in0.0 mm
05:56 PM 56.5°F13.6°C 31.1°F-0.5°C 38% 21.4 mph S34.4 kmh S 21.9 mph35.2 kmh 29.99 in1015.6 mb 0.00 in0.0 mm 0.00 in0.0 mm 0.00 in0.0 mm
06:02 PM 56.3°F13.5°C 32.3°F0.2°C 40% 13.4 mph SW21.6 kmh SW 21.7 mph34.9 kmh 29.99 in1015.6 mb 0.00 in0.0 mm 0.00 in0.0 mm 0.00 in0.0 mm
06:07 PM 55.1°F12.8°C 35.1°F1.7°C 47% 26.0 mph W41.8 kmh W 30.2 mph48.6 kmh 30.01 in1016.3 mb 0.00 in0.0 mm 0.00 in0.0 mm 0.00 in0.0 mm
06:12 PM 52.7°F11.5°C 35.6°F2.0°C 52% 29.2 mph W47.0 kmh W 30.2 mph48.6 kmh 30.01 in1016.3 mb 0.00 in0.0 mm 0.00 in0.0 mm 0.00 in0.0 mm
06:17 PM 50.6°F10.3°C 36.3°F2.4°C 58% 24.8 mph W39.9 kmh W 33.1 mph53.3 kmh 30.02 in1016.6 mb 0.00 in0.0 mm 0.00 in0.0 mm 0.00 in0.0 mm
06:22 PM 49.5°F9.7°C 36.3°F2.4°C 60% 23.3 mph WSW37.5 kmh WSW 33.1 mph53.3 kmh 30.03 in1016.9 mb 0.00 in0.0 mm 0.00 in0.0 mm 0.00 in0.0 mm
06:27 PM 49.0°F9.4°C 36.6°F2.6°C 62% 20.8 mph W33.5 kmh W 29.5 mph47.5 kmh 30.03 in1016.9 mb 0.00 in0.0 mm 0.00 in0.0 mm 0.00 in0.0 mm
06:32 PM 48.4°F9.1°C 36.4°F2.4°C 63% 22.7 mph WNW36.5 kmh WNW 26.4 mph42.5 kmh 30.03 in1016.9 mb 0.00 in0.0 mm 0.00 in0.0 mm 0.00 in0.0 mm
06:37 PM 48.1°F8.9°C 36.1°F2.3°C 63% 18.5 mph WSW29.8 kmh WSW 26.8 mph43.1 kmh 30.04 in1017.3 mb 0.00 in0.0 mm 0.00 in0.0 mm 0.00 in0.0 mm
06:42 PM 47.9°F8.8°C 36.3°F2.4°C 64% 17.7 mph W28.5 kmh W 29.3 mph47.2 kmh 30.05 in1017.6 mb 0.00 in0.0 mm 0.00 in0.0 mm 0.00 in0.0 mm
06:47 PM 47.5°F8.6°C 36.3°F2.4°C 65% 19.8 mph WSW31.9 kmh WSW 29.3 mph47.2 kmh 30.05 in1017.6 mb 0.00 in0.0 mm 0.00 in0.0 mm 0.00 in0.0 mm
06:52 PM 47.2°F8.4°C 36.4°F2.4°C 66% 22.0 mph WSW35.4 kmh WSW 23.3 mph37.5 kmh 30.05 in1017.6 mb 0.00 in0.0 mm 0.00 in0.0 mm 0.00 in0.0 mm
06:57 PM 46.8°F8.2°C 35.2°F1.8°C 64% 11.0 mph SW17.7 kmh SW 23.3 mph37.5 kmh 30.07 in1018.3 mb 0.00 in0.0 mm 0.00 in0.0 mm 0.00 in0.0 mm
07:02 PM 46.4°F8.0°C 35.3°F1.8°C 65% 10.5 mph SW16.9 kmh SW 23.3 mph37.5 kmh 30.07 in1018.3 mb 0.00 in0.0 mm 0.00 in0.0 mm 0.00 in0.0 mm
07:07 PM 46.1°F7.8°C 34.9°F1.6°C 65% 13.0 mph SW20.9 kmh SW 14.8 mph23.8 kmh 30.07 in1018.3 mb 0.00 in0.0 mm 0.00 in0.0 mm 0.00 in0.0 mm
07:12 PM 45.7°F7.6°C 35.7°F2.1°C 68% 14.4 mph SW23.2 kmh SW 17.4 mph28.0 kmh 30.07 in1018.3 mb 0.00 in0.0 mm 0.00 in0.0 mm 0.00 in0.0 mm
07:17 PM 45.4°F7.4°C 36.2°F2.3°C 70% 15.9 mph SW25.6 kmh SW 17.4 mph28.0 kmh 30.07 in1018.3 mb 0.00 in0.0 mm 0.00 in0.0 mm 0.00 in0.0 mm
07:22 PM 45.0°F7.2°C 36.2°F2.3°C 71% 13.8 mph WSW22.2 kmh WSW 17.4 mph28.0 kmh 30.07 in1018.3 mb 0.00 in0.0 mm 0.00 in0.0 mm 0.00 in0.0 mm
07:27 PM 44.8°F7.1°C 36.4°F2.4°C 72% 13.5 mph SW21.7 kmh SW 16.3 mph26.2 kmh 30.07 in1018.3 mb 0.00 in0.0 mm 0.00 in0.0 mm 0.00 in0.0 mm
07:32 PM 44.6°F7.0°C 36.5°F2.5°C 73% 13.4 mph SW21.6 kmh SW 15.9 mph25.6 kmh 30.07 in1018.3 mb 0.02 in0.5 mm 0.24 in6.1 mm 0.02 in0.5 mm
07:37 PM 44.5°F6.9°C 36.4°F2.4°C 73% 9.3 mph SW15.0 kmh SW 15.9 mph25.6 kmh 30.07 in1018.3 mb 0.02 in0.5 mm 0.00 in0.0 mm 0.02 in0.5 mm
07:42 PM 44.5°F6.9°C 36.6°F2.6°C 74% 8.8 mph SW14.2 kmh SW 12.8 mph20.6 kmh 30.07 in1018.3 mb 0.02 in0.5 mm 0.00 in0.0 mm 0.02 in0.5 mm
07:47 PM 44.3°F6.8°C 36.5°F2.5°C 74% 9.0 mph WSW14.5 kmh WSW 12.8 mph20.6 kmh 30.08 in1018.6 mb 0.02 in0.5 mm 0.00 in0.0 mm 0.02 in0.5 mm
07:52 PM 44.3°F6.8°C 36.5°F2.5°C 74% 8.4 mph SW13.5 kmh SW 10.5 mph16.9 kmh 30.08 in1018.6 mb 0.02 in0.5 mm 0.00 in0.0 mm 0.02 in0.5 mm
07:57 PM 44.1°F6.7°C 36.4°F2.4°C 74% 6.7 mph SW10.8 kmh SW 10.5 mph16.9 kmh 30.08 in1018.6 mb 0.04 in1.0 mm 0.24 in6.1 mm 0.04 in1.0 mm
08:02 PM 44.1°F6.7°C 36.4°F2.4°C 74% 6.8 mph SW10.9 kmh SW 11.2 mph18.0 kmh 30.08 in1018.6 mb 0.04 in1.0 mm 0.00 in0.0 mm 0.04 in1.0 mm
08:07 PM 44.1°F6.7°C 36.4°F2.4°C 74% 7.7 mph SW12.4 kmh SW 11.2 mph18.0 kmh 30.08 in1018.6 mb 0.05 in1.3 mm 0.12 in3.0 mm 0.05 in1.3 mm
08:12 PM 43.9°F6.6°C 36.2°F2.3°C 74% 8.5 mph SW13.7 kmh SW 9.4 mph15.1 kmh 30.09 in1019.0 mb 0.05 in1.3 mm 0.00 in0.0 mm 0.05 in1.3 mm
08:17 PM 43.9°F6.6°C 36.5°F2.5°C 75% 5.7 mph SW9.2 kmh SW 9.4 mph15.1 kmh 30.08 in1018.6 mb 0.05 in1.3 mm 0.00 in0.0 mm 0.05 in1.3 mm
08:22 PM 43.9°F6.6°C 36.5°F2.5°C 75% 9.0 mph SW14.5 kmh SW 11.0 mph17.7 kmh 30.08 in1018.6 mb 0.05 in1.3 mm 0.00 in0.0 mm 0.05 in1.3 mm
08:27 PM 43.9°F6.6°C 36.5°F2.5°C 75% 6.6 mph SW10.6 kmh SW 11.0 mph17.7 kmh 30.08 in1018.6 mb 0.05 in1.3 mm 0.00 in0.0 mm 0.05 in1.3 mm
08:32 PM 43.7°F6.5°C 36.6°F2.6°C 76% 4.7 mph SSW7.6 kmh SSW 9.2 mph14.8 kmh 30.08 in1018.6 mb 0.03 in0.8 mm 0.00 in0.0 mm 0.05 in1.3 mm
08:37 PM 43.7°F6.5°C 36.6°F2.6°C 76% 7.2 mph SSW11.6 kmh SSW 7.8 mph12.6 kmh 30.08 in1018.6 mb 0.03 in0.8 mm 0.00 in0.0 mm 0.05 in1.3 mm
08:42 PM 43.7°F6.5°C 37.0°F2.8°C 77% 5.9 mph SSW9.5 kmh SSW 7.8 mph12.6 kmh 30.09 in1019.0 mb 0.03 in0.8 mm 0.00 in0.0 mm 0.05 in1.3 mm
08:47 PM 43.7°F6.5°C 37.0°F2.8°C 77% 5.3 mph S8.5 kmh S 7.8 mph12.6 kmh 30.09 in1019.0 mb 0.03 in0.8 mm 0.00 in0.0 mm 0.05 in1.3 mm
08:52 PM 43.7°F6.5°C 37.0°F2.8°C 77% 6.1 mph S9.8 kmh S 7.4 mph11.9 kmh 30.10 in1019.3 mb 0.01 in0.3 mm 0.00 in0.0 mm 0.05 in1.3 mm
08:57 PM 43.7°F6.5°C 37.0°F2.8°C 77% 4.9 mph SSE7.9 kmh SSE 7.2 mph11.6 kmh 30.10 in1019.3 mb 0.01 in0.3 mm 0.00 in0.0 mm 0.05 in1.3 mm
09:03 PM 43.7°F6.5°C 36.6°F2.6°C 76% 3.0 mph SE4.8 kmh SE 5.4 mph8.7 kmh 30.10 in1019.3 mb 0.00 in0.0 mm 0.00 in0.0 mm 0.05 in1.3 mm
09:08 PM 43.9°F6.6°C 36.8°F2.7°C 76% 4.5 mph SE7.2 kmh SE 5.6 mph9.0 kmh 30.10 in1019.3 mb 0.00 in0.0 mm 0.00 in0.0 mm 0.05 in1.3 mm
09:13 PM 43.9°F6.6°C 36.8°F2.7°C 76% 5.9 mph S9.5 kmh S 6.9 mph11.1 kmh 30.10 in1019.3 mb 0.00 in0.0 mm 0.00 in0.0 mm 0.05 in1.3 mm
09:18 PM 43.9°F6.6°C 37.2°F2.9°C 77% 4.7 mph SSE7.6 kmh SSE 8.9 mph14.3 kmh 30.10 in1019.3 mb 0.00 in0.0 mm 0.00 in0.0 mm 0.05 in1.3 mm
09:23 PM 43.9°F6.6°C 37.2°F2.9°C 77% 7.4 mph S11.9 kmh S 8.9 mph14.3 kmh 30.10 in1019.3 mb 0.00 in0.0 mm 0.00 in0.0 mm 0.05 in1.3 mm
09:27 PM 43.9°F6.6°C 37.5°F3.1°C 78% 8.8 mph SSW14.2 kmh SSW 9.8 mph15.8 kmh 30.10 in1019.3 mb 0.00 in0.0 mm 0.00 in0.0 mm 0.05 in1.3 mm
09:32 PM 43.9°F6.6°C 37.2°F2.9°C 77% 8.1 mph SSW13.0 kmh SSW 9.8 mph15.8 kmh 30.10 in1019.3 mb 0.00 in0.0 mm 0.00 in0.0 mm 0.05 in1.3 mm
09:37 PM 43.9°F6.6°C 37.5°F3.1°C 78% 5.7 mph SSW9.2 kmh SSW 8.5 mph13.7 kmh 30.10 in1019.3 mb 0.00 in0.0 mm 0.00 in0.0 mm 0.05 in1.3 mm
09:42 PM 43.9°F6.6°C 37.5°F3.1°C 78% 8.1 mph SW13.0 kmh SW 9.2 mph14.8 kmh 30.10 in1019.3 mb 0.00 in0.0 mm 0.00 in0.0 mm 0.05 in1.3 mm
09:47 PM 43.9°F6.6°C 37.5°F3.1°C 78% 6.3 mph S10.1 kmh S 9.2 mph14.8 kmh 30.10 in1019.3 mb 0.00 in0.0 mm 0.00 in0.0 mm 0.05 in1.3 mm
09:52 PM 43.9°F6.6°C 37.8°F3.2°C 79% 8.1 mph S13.0 kmh S 10.7 mph17.2 kmh 30.10 in1019.3 mb 0.00 in0.0 mm 0.00 in0.0 mm 0.05 in1.3 mm
09:57 PM 43.9°F6.6°C 37.5°F3.1°C 78% 5.3 mph SE8.5 kmh SE 10.7 mph17.2 kmh 30.10 in1019.3 mb 0.00 in0.0 mm 0.00 in0.0 mm 0.05 in1.3 mm
10:03 PM 43.9°F6.6°C 37.2°F2.9°C 77% 5.4 mph SE8.7 kmh SE 7.8 mph12.6 kmh 30.10 in1019.3 mb 0.00 in0.0 mm 0.00 in0.0 mm 0.05 in1.3 mm
10:08 PM 43.6°F6.4°C 36.5°F2.5°C 76% 4.7 mph SE7.6 kmh SE 7.4 mph11.9 kmh 30.10 in1019.3 mb 0.00 in0.0 mm 0.00 in0.0 mm 0.05 in1.3 mm
10:13 PM 43.4°F6.3°C 36.3°F2.4°C 76% 5.7 mph SE9.2 kmh SE 7.4 mph11.9 kmh 30.10 in1019.3 mb 0.00 in0.0 mm 0.00 in0.0 mm 0.05 in1.3 mm
10:18 PM 43.2°F6.2°C 36.1°F2.3°C 76% 5.9 mph SE9.5 kmh SE 6.9 mph11.1 kmh 30.10 in1019.3 mb 0.00 in0.0 mm 0.00 in0.0 mm 0.05 in1.3 mm
10:23 PM 43.2°F6.2°C 36.1°F2.3°C 76% 4.1 mph ESE6.6 kmh ESE 6.3 mph10.1 kmh 30.10 in1019.3 mb 0.02 in0.5 mm 0.24 in6.1 mm 0.07 in1.8 mm
10:28 PM 43.0°F6.1°C 36.3°F2.4°C 77% 2.5 mph ESE4.0 kmh ESE 4.7 mph7.6 kmh 30.10 in1019.3 mb 0.02 in0.5 mm 0.00 in0.0 mm 0.07 in1.8 mm
10:33 PM 43.0°F6.1°C 36.3°F2.4°C 77% 1.8 mph E2.9 kmh E 2.7 mph4.3 kmh 30.10 in1019.3 mb 0.02 in0.5 mm 0.00 in0.0 mm 0.07 in1.8 mm
10:38 PM 43.0°F6.1°C 36.6°F2.6°C 78% 1.8 mph NNW2.9 kmh NNW 2.2 mph3.5 kmh 30.10 in1019.3 mb 0.04 in1.0 mm 0.24 in6.1 mm 0.09 in2.3 mm
10:43 PM 42.8°F6.0°C 36.1°F2.3°C 77% 3.0 mph 4.8 kmh 3.8 mph6.1 kmh 30.10 in1019.3 mb 0.04 in1.0 mm 0.00 in0.0 mm 0.09 in2.3 mm
10:48 PM 42.8°F6.0°C 36.5°F2.5°C 78% 4.0 mph NW6.4 kmh NW 4.0 mph6.4 kmh 30.10 in1019.3 mb 0.07 in1.8 mm 0.36 in9.1 mm 0.12 in3.0 mm
10:52 PM 42.8°F6.0°C 36.7°F2.6°C 79% 10.3 mph WSW16.6 kmh WSW 13.0 mph20.9 kmh 30.10 in1019.3 mb 0.09 in2.3 mm 0.30 in7.6 mm 0.14 in3.6 mm
10:57 PM 42.5°F5.8°C 36.4°F2.4°C 79% 7.5 mph SW12.1 kmh SW 13.0 mph20.9 kmh 30.10 in1019.3 mb 0.12 in3.0 mm 0.36 in9.1 mm 0.17 in4.3 mm
11:03 PM 42.1°F5.6°C 36.4°F2.4°C 80% 3.5 mph SSW5.6 kmh SSW 9.2 mph14.8 kmh 30.10 in1019.3 mb 0.13 in3.3 mm 0.01 in0.3 mm 0.18 in4.6 mm
11:08 PM 42.1°F5.6°C 36.4°F2.4°C 80% 3.7 mph SSW6.0 kmh SSW 6.9 mph11.1 kmh 30.10 in1019.3 mb 0.16 in4.1 mm 0.36 in9.1 mm 0.21 in5.3 mm
11:13 PM 41.9°F5.5°C 36.2°F2.3°C 80% 3.7 mph SSW6.0 kmh SSW 4.5 mph7.2 kmh 30.10 in1019.3 mb 0.17 in4.3 mm 0.12 in3.0 mm 0.22 in5.6 mm
11:18 PM 41.9°F5.5°C 36.5°F2.5°C 81% 5.2 mph SSW8.4 kmh SSW 5.4 mph8.7 kmh 30.10 in1019.3 mb 0.17 in4.3 mm 0.00 in0.0 mm 0.24 in6.1 mm
11:23 PM 41.9°F5.5°C 36.5°F2.5°C 81% 5.7 mph S9.2 kmh S 6.0 mph9.7 kmh 30.09 in1019.0 mb 0.18 in4.6 mm 0.12 in3.0 mm 0.25 in6.4 mm
11:28 PM 41.9°F5.5°C 36.5°F2.5°C 81% 5.0 mph SSE8.0 kmh SSE 6.0 mph9.7 kmh 30.09 in1019.0 mb 0.18 in4.6 mm 0.00 in0.0 mm 0.25 in6.4 mm
11:33 PM 41.8°F5.4°C 36.3°F2.4°C 81% 5.7 mph SSE9.2 kmh SSE 6.9 mph11.1 kmh 30.09 in1019.0 mb 0.19 in4.8 mm 0.12 in3.0 mm 0.26 in6.6 mm
11:38 PM 41.6°F5.3°C 36.1°F2.3°C 81% 4.5 mph S7.2 kmh S 6.9 mph11.1 kmh 30.09 in1019.0 mb 0.17 in4.3 mm 0.00 in0.0 mm 0.26 in6.6 mm
11:43 PM 41.4°F5.2°C 36.3°F2.4°C 82% 4.5 mph S7.2 kmh S 6.3 mph10.1 kmh 30.09 in1019.0 mb 0.15 in3.8 mm 0.00 in0.0 mm 0.26 in6.6 mm
11:48 PM 41.4°F5.2°C 36.3°F2.4°C 82% 5.1 mph SSW8.2 kmh SSW 5.4 mph8.7 kmh 30.09 in1019.0 mb 0.13 in3.3 mm 0.00 in0.0 mm 0.26 in6.6 mm
11:53 PM 41.4°F5.2°C 36.3°F2.4°C 82% 5.9 mph SSW9.5 kmh SSW 6.3 mph10.1 kmh 30.09 in1019.0 mb 0.10 in2.5 mm 0.00 in0.0 mm 0.26 in6.6 mm
11:58 PM 41.4°F5.2°C 36.3°F2.4°C 82% 4.3 mph SSW6.9 kmh SSW 6.3 mph10.1 kmh 30.09 in1019.0 mb 0.08 in2.0 mm 0.00 in0.0 mm 0.26 in6.6 mm